createdAt,value
2022-10-22T00:02:20.522Z,10.35
2022-10-22T00:04:49.292Z,10.23
2022-10-22T00:07:18.317Z,10.20
2022-10-22T00:09:45.224Z,10.27
2022-10-22T00:12:12.456Z,10.28
2022-10-22T00:14:39.357Z,10.30
2022-10-22T00:17:08.086Z,10.29
2022-10-22T00:19:38.526Z,10.31
2022-10-22T00:22:08.391Z,10.28
2022-10-22T00:24:35.831Z,10.21
2022-10-22T00:27:02.555Z,10.19
2022-10-22T00:29:29.467Z,10.19
2022-10-22T00:34:27.366Z,10.24
2022-10-22T00:36:55.018Z,10.23
2022-10-22T00:39:23.714Z,10.24
2022-10-22T00:41:52.214Z,10.22
2022-10-22T00:45:06.422Z,10.28
2022-10-22T00:48:05.214Z,10.21
2022-10-22T00:50:34.690Z,10.29
2022-10-22T00:53:03.599Z,10.28
2022-10-22T00:55:31.365Z,10.25
2022-10-22T00:57:58.751Z,10.24
2022-10-22T01:00:26.124Z,10.25
2022-10-22T01:02:54.553Z,10.29
2022-10-22T01:05:21.416Z,10.31
2022-10-22T01:07:51.333Z,10.28
2022-10-22T01:10:39.674Z,10.27
2022-10-22T01:13:11.947Z,10.26
2022-10-22T01:15:59.226Z,10.25
2022-10-22T01:18:38.231Z,10.23
2022-10-22T01:21:29.215Z,10.25
2022-10-22T01:24:07.695Z,10.25
2022-10-22T01:26:52.865Z,10.21
2022-10-22T01:29:27.566Z,10.20
2022-10-22T01:32:01.635Z,10.14
2022-10-22T01:34:30.241Z,10.22
2022-10-22T01:36:57.883Z,10.27
2022-10-22T01:39:26.624Z,10.28
2022-10-22T01:41:55.715Z,10.28
2022-10-22T01:44:30.837Z,10.34
2022-10-22T01:47:10.248Z,10.33
2022-10-22T01:50:00.812Z,10.32
2022-10-22T01:52:39.340Z,10.35
2022-10-22T01:55:24.162Z,10.31
2022-10-22T01:58:14.196Z,10.29
2022-10-22T02:00:49.878Z,10.27
2022-10-22T02:03:25.051Z,10.24
2022-10-22T02:05:59.471Z,10.22
2022-10-22T02:08:30.629Z,10.19
2022-10-22T02:10:58.568Z,10.19
2022-10-22T02:13:29.612Z,10.19
2022-10-22T02:15:56.906Z,10.16
2022-10-22T02:18:26.375Z,10.16
2022-10-22T02:20:53.664Z,10.18
2022-10-22T02:23:22.049Z,10.19
2022-10-22T02:25:54.162Z,10.24
2022-10-22T02:28:34.718Z,10.30
2022-10-22T02:31:16.471Z,10.26
2022-10-22T02:33:47.613Z,10.36
2022-10-22T02:36:16.339Z,10.32
2022-10-22T02:38:43.254Z,10.29
2022-10-22T02:41:10.831Z,10.23
2022-10-22T02:43:42.785Z,10.13
2022-10-22T02:46:10.256Z,10.19
2022-10-22T02:48:37.243Z,10.20
2022-10-22T02:51:04.014Z,10.12
2022-10-22T02:53:30.385Z,10.08
2022-10-22T02:55:56.757Z,10.21
2022-10-22T02:58:23.075Z,10.05
2022-10-22T03:00:49.486Z,9.97
2022-10-22T03:03:15.837Z,9.97
2022-10-22T03:05:42.179Z,9.90
2022-10-22T03:08:08.577Z,10.03
2022-10-22T03:10:35.112Z,10.11
2022-10-22T03:13:01.494Z,10.13
2022-10-22T03:17:59.111Z,10.17
2022-10-22T03:20:25.495Z,10.21
2022-10-22T03:22:52.492Z,10.21
2022-10-22T03:25:22.493Z,10.20
2022-10-22T03:27:51.027Z,10.11
2022-10-22T03:30:17.676Z,10.07
2022-10-22T03:32:44.101Z,10.08
2022-10-22T03:35:10.547Z,10.11
2022-10-22T03:37:38.108Z,10.18
2022-10-22T03:40:06.427Z,10.11
2022-10-22T03:42:33.108Z,10.12
2022-10-22T03:44:59.445Z,10.11
2022-10-22T03:47:25.885Z,10.18
2022-10-22T03:49:52.515Z,10.23
2022-10-22T03:52:19.265Z,10.30
2022-10-22T03:54:47.954Z,10.33
2022-10-22T03:57:14.699Z,10.32
2022-10-22T03:59:43.474Z,10.29
2022-10-22T04:02:11.339Z,10.26
2022-10-22T04:04:38.560Z,10.25
2022-10-22T04:07:06.602Z,10.24
2022-10-22T04:09:36.613Z,10.26
2022-10-22T04:12:05.460Z,10.16
2022-10-22T04:14:32.054Z,10.20
2022-10-22T04:16:58.408Z,10.25
2022-10-22T04:19:24.883Z,10.31
2022-10-22T04:21:51.246Z,10.31
2022-10-22T04:24:17.695Z,10.30
2022-10-22T04:26:44.050Z,10.33
2022-10-22T04:29:13.584Z,10.33
2022-10-22T04:31:42.471Z,10.36
2022-10-22T04:34:08.821Z,10.34
2022-10-22T04:36:35.259Z,10.36
2022-10-22T04:39:02.933Z,10.24
2022-10-22T04:41:35.555Z,10.24
2022-10-22T04:44:02.149Z,10.28
2022-10-22T04:46:31.431Z,10.31
2022-10-22T04:48:58.514Z,10.34
2022-10-22T04:51:26.915Z,10.39
2022-10-22T04:53:54.227Z,10.48
2022-10-22T04:56:27.015Z,10.48
2022-10-22T04:58:56.196Z,10.47
2022-10-22T05:01:32.526Z,10.48
2022-10-22T05:04:01.118Z,10.51
2022-10-22T05:06:29.161Z,10.55
2022-10-22T05:08:58.238Z,10.55
2022-10-22T05:11:28.272Z,10.62
2022-10-22T05:13:58.970Z,10.57
2022-10-22T05:16:26.484Z,10.54
2022-10-22T05:18:53.336Z,10.55
2022-10-22T05:21:20.722Z,10.59
2022-10-22T05:23:49.177Z,10.69
2022-10-22T05:26:18.029Z,10.72
2022-10-22T05:28:44.742Z,10.78
2022-10-22T05:31:12.880Z,10.86
2022-10-22T05:33:40.216Z,10.94
2022-10-22T05:36:08.504Z,11.00
2022-10-22T05:38:35.578Z,11.05
2022-10-22T05:41:08.506Z,11.15
2022-10-22T05:43:35.938Z,11.19
2022-10-22T05:46:14.970Z,11.26
2022-10-22T05:48:43.034Z,11.31
2022-10-22T05:51:11.963Z,11.36
2022-10-22T05:53:41.360Z,11.44
2022-10-22T05:56:15.939Z,11.51
2022-10-22T05:58:45.614Z,11.51
2022-10-22T06:01:15.869Z,11.52
2022-10-22T06:03:43.362Z,11.60
2022-10-22T06:06:21.075Z,11.60
2022-10-22T06:08:50.082Z,11.49
2022-10-22T06:11:18.013Z,11.60
2022-10-22T06:13:45.596Z,11.62
2022-10-22T06:16:12.587Z,11.60
2022-10-22T06:18:39.324Z,11.59
2022-10-22T06:21:11.513Z,11.64
2022-10-22T06:23:38.910Z,11.73
2022-10-22T06:26:06.593Z,11.75
2022-10-22T06:28:33.573Z,11.78
2022-10-22T06:31:02.258Z,11.79
2022-10-22T06:33:29.431Z,11.80
2022-10-22T06:35:55.884Z,11.78
2022-10-22T06:38:22.310Z,11.74
2022-10-22T06:40:48.628Z,11.74
2022-10-22T06:43:14.984Z,11.65
2022-10-22T06:45:41.407Z,11.66
2022-10-22T06:48:07.847Z,11.65
2022-10-22T06:50:35.065Z,11.71
2022-10-22T06:53:01.401Z,11.79
2022-10-22T06:55:27.783Z,11.82
2022-10-22T06:57:55.493Z,11.82
2022-10-22T07:00:22.286Z,11.80
2022-10-22T07:02:57.615Z,11.83
2022-10-22T07:05:25.697Z,11.73
2022-10-22T07:07:52.054Z,11.64
2022-10-22T07:10:18.704Z,11.62
2022-10-22T07:12:45.051Z,11.57
2022-10-22T07:15:11.714Z,11.42
2022-10-22T07:20:10.087Z,11.37
2022-10-22T07:22:36.483Z,11.37
2022-10-22T07:25:07.170Z,11.41
2022-10-22T07:27:33.900Z,11.47
2022-10-22T07:30:01.402Z,11.55
2022-10-22T07:32:27.868Z,11.46
2022-10-22T07:34:54.270Z,11.60
2022-10-22T07:37:21.987Z,11.68
2022-10-22T07:39:49.132Z,11.66
2022-10-22T07:42:16.158Z,11.85
2022-10-22T07:44:42.513Z,11.92
2022-10-22T07:47:08.934Z,11.97
2022-10-22T07:49:35.371Z,12.03
2022-10-22T07:52:01.984Z,12.07
2022-10-22T07:54:28.422Z,12.10
2022-10-22T07:56:54.748Z,12.15
2022-10-22T07:59:21.112Z,12.12
2022-10-22T08:01:47.513Z,12.19
2022-10-22T08:04:13.970Z,12.17
2022-10-22T08:06:43.484Z,12.16
2022-10-22T08:09:12.456Z,12.17
2022-10-22T08:11:39.077Z,12.22
2022-10-22T08:14:05.449Z,12.26
2022-10-22T08:16:31.809Z,12.23
2022-10-22T08:18:58.327Z,12.20
2022-10-22T08:21:24.747Z,12.21
2022-10-22T08:23:51.106Z,12.27
2022-10-22T08:26:18.162Z,12.28
2022-10-22T08:28:44.509Z,12.25
2022-10-22T08:31:11.002Z,12.26
2022-10-22T08:33:38.734Z,12.27
2022-10-22T08:36:05.785Z,12.29
2022-10-22T08:38:32.322Z,12.33
2022-10-22T08:41:08.826Z,12.37
2022-10-22T08:43:47.387Z,12.44
2022-10-22T08:46:19.253Z,12.50
2022-10-22T08:48:53.847Z,12.58
2022-10-22T08:51:26.172Z,12.61
2022-10-22T08:54:17.237Z,12.59
2022-10-22T08:56:47.782Z,12.70
2022-10-22T08:59:21.980Z,12.80
2022-10-22T09:01:53.064Z,12.90
2022-10-22T09:04:26.795Z,12.92
2022-10-22T09:06:57.436Z,12.98
2022-10-22T09:09:30.551Z,13.06
2022-10-22T09:11:59.128Z,13.13
2022-10-22T09:14:26.336Z,13.17
2022-10-22T09:17:25.637Z,13.16
2022-10-22T09:20:08.341Z,13.24
2022-10-22T09:23:01.759Z,13.27
2022-10-22T09:25:30.762Z,13.31
2022-10-22T09:27:59.768Z,13.36
2022-10-22T09:30:29.707Z,13.40
2022-10-22T09:33:14.196Z,13.45
2022-10-22T09:35:57.263Z,13.46
2022-10-22T09:38:27.766Z,13.57
2022-10-22T09:40:56.812Z,13.68
2022-10-22T09:43:23.886Z,13.81
2022-10-22T09:45:57.972Z,13.98
2022-10-22T09:48:34.968Z,14.04
2022-10-22T09:51:22.999Z,14.30
2022-10-22T09:53:57.190Z,14.60
2022-10-22T09:56:28.931Z,14.74
2022-10-22T09:58:57.458Z,14.76
2022-10-22T10:01:30.054Z,14.98
2022-10-22T10:04:17.872Z,17.19
2022-10-22T10:06:45.393Z,18.43
2022-10-22T10:09:25.600Z,19.07
2022-10-22T10:12:17.448Z,19.63
2022-10-22T10:15:00.952Z,20.16
2022-10-22T10:17:43.390Z,20.74
2022-10-22T10:20:41.337Z,20.83
2022-10-22T10:23:36.235Z,20.76
2022-10-22T10:26:30.831Z,21.02
2022-10-22T10:29:22.111Z,22.73
2022-10-22T10:32:00.570Z,24.03
2022-10-22T10:34:48.719Z,25.01
2022-10-22T10:37:40.491Z,24.07
2022-10-22T10:40:26.298Z,25.79
2022-10-22T10:42:58.063Z,26.27
2022-10-22T10:45:42.511Z,26.27
2022-10-22T10:48:23.713Z,25.80
2022-10-22T10:50:59.812Z,27.12
2022-10-22T10:54:07.707Z,27.76
2022-10-22T10:56:55.642Z,27.75
2022-10-22T10:59:44.018Z,26.52
2022-10-22T11:02:45.785Z,24.09
2022-10-22T11:05:21.112Z,24.28
2022-10-22T11:07:57.666Z,21.27
2022-10-22T11:10:37.017Z,22.12
2022-10-22T11:13:12.926Z,21.93
2022-10-22T11:15:41.203Z,21.58
2022-10-22T11:18:54.990Z,26.18
2022-10-22T11:21:29.472Z,23.76
2022-10-22T11:24:25.710Z,24.65
2022-10-22T11:27:02.980Z,24.99
2022-10-22T11:29:39.034Z,25.15
2022-10-22T11:32:10.710Z,25.18
2022-10-22T11:34:54.173Z,24.00
2022-10-22T11:37:24.727Z,22.10
2022-10-22T11:39:59.696Z,21.18
2022-10-22T11:42:35.318Z,20.82
2022-10-22T11:45:15.356Z,19.63
2022-10-22T11:47:56.948Z,20.62
2022-10-22T11:50:43.438Z,20.44
2022-10-22T11:53:12.859Z,19.93
2022-10-22T11:55:45.828Z,23.31
2022-10-22T11:58:29.050Z,26.04
2022-10-22T12:01:24.449Z,28.47
2022-10-22T12:04:17.231Z,26.94
2022-10-22T12:06:56.818Z,25.26
2022-10-22T12:09:26.553Z,27.85
2022-10-22T12:11:55.346Z,27.90
2022-10-22T12:14:29.492Z,28.77
2022-10-22T12:16:59.032Z,29.80
2022-10-22T12:19:44.729Z,29.84
2022-10-22T12:22:37.408Z,29.92
2022-10-22T12:25:16.587Z,30.46
2022-10-22T12:27:43.210Z,29.85
2022-10-22T12:30:30.567Z,26.28
2022-10-22T12:33:01.988Z,24.13
2022-10-22T12:35:35.588Z,24.99
2022-10-22T12:38:10.423Z,27.96
2022-10-22T12:40:36.861Z,25.20
2022-10-22T12:43:24.305Z,23.73
2022-10-22T12:45:52.063Z,23.33
2022-10-22T12:48:28.169Z,22.67
2022-10-22T12:50:56.739Z,26.26
2022-10-22T12:53:29.285Z,28.04
2022-10-22T12:56:01.050Z,30.39
2022-10-22T12:58:32.403Z,26.36
2022-10-22T13:01:03.402Z,25.02
2022-10-22T13:03:33.111Z,24.67
2022-10-22T13:06:24.309Z,23.31
2022-10-22T13:08:59.953Z,21.24
2022-10-22T13:11:53.499Z,20.18
2022-10-22T13:14:21.473Z,19.47
2022-10-22T13:17:08.261Z,19.84
2022-10-22T13:19:50.754Z,19.49
2022-10-22T13:22:26.203Z,18.64
2022-10-22T13:24:52.997Z,18.35
2022-10-22T13:27:19.973Z,18.15
2022-10-22T13:29:46.523Z,17.80
2022-10-22T13:32:29.543Z,18.03
2022-10-22T13:35:05.197Z,19.03
2022-10-22T13:37:34.093Z,19.03
2022-10-22T13:40:00.437Z,18.80
2022-10-22T13:42:26.821Z,19.12
2022-10-22T13:44:53.209Z,18.85
2022-10-22T13:47:29.881Z,18.42
2022-10-22T13:49:59.525Z,19.08
2022-10-22T13:52:31.359Z,18.85
2022-10-22T13:54:57.786Z,19.63
2022-10-22T13:57:24.237Z,20.14
2022-10-22T13:59:50.659Z,23.41
2022-10-22T14:02:18.524Z,25.47
2022-10-22T14:04:45.247Z,27.37
2022-10-22T14:07:14.995Z,28.45
2022-10-22T14:09:41.712Z,28.26
2022-10-22T14:12:16.607Z,28.03
2022-10-22T14:14:43.221Z,27.89
2022-10-22T14:17:16.520Z,26.84
2022-10-22T14:19:48.341Z,26.54
2022-10-22T14:22:19.012Z,27.03
2022-10-22T14:24:46.536Z,26.41
2022-10-22T14:27:15.172Z,26.69
2022-10-22T14:29:41.712Z,25.79
2022-10-22T14:32:19.099Z,24.81
2022-10-22T14:34:46.817Z,24.17
2022-10-22T14:37:18.984Z,23.65
2022-10-22T14:39:47.038Z,23.33
2022-10-22T14:42:14.459Z,22.97
2022-10-22T14:44:42.779Z,22.33
2022-10-22T14:47:09.236Z,21.63
2022-10-22T14:49:35.631Z,21.16
2022-10-22T14:52:04.791Z,20.94
2022-10-22T14:54:31.249Z,21.24
2022-10-22T14:56:57.627Z,21.05
2022-10-22T14:59:24.659Z,20.51
2022-10-22T15:01:51.009Z,20.11
2022-10-22T15:04:20.705Z,20.26
2022-10-22T15:06:47.154Z,20.17
2022-10-22T15:09:13.577Z,20.26
2022-10-22T15:11:40.109Z,20.03
2022-10-22T15:14:06.497Z,19.18
2022-10-22T15:16:32.826Z,18.06
2022-10-22T15:18:59.741Z,17.86
2022-10-22T15:21:26.098Z,17.58
2022-10-22T15:23:52.430Z,17.24
2022-10-22T15:26:19.182Z,16.93
2022-10-22T15:28:45.562Z,16.76
2022-10-22T15:31:14.177Z,16.48
2022-10-22T15:33:43.503Z,16.38
2022-10-22T15:36:15.855Z,16.32
2022-10-22T15:38:42.249Z,16.24
2022-10-22T15:41:12.360Z,16.10
2022-10-22T15:43:38.989Z,15.93
2022-10-22T15:46:16.964Z,15.73
2022-10-22T15:48:43.743Z,15.62
2022-10-22T15:51:12.938Z,15.52
2022-10-22T15:53:39.893Z,15.47
2022-10-22T15:56:06.505Z,15.41
2022-10-22T15:58:33.123Z,15.28
2022-10-22T16:01:13.503Z,15.21
2022-10-22T16:03:40.840Z,15.10
2022-10-22T16:06:09.186Z,15.03
2022-10-22T16:08:36.291Z,14.91
2022-10-22T16:11:02.775Z,14.86
2022-10-22T16:13:29.224Z,14.80
2022-10-22T16:15:55.694Z,14.72
2022-10-22T16:18:23.616Z,14.53
2022-10-22T16:20:50.099Z,14.42
2022-10-22T16:23:18.760Z,14.22
2022-10-22T16:25:46.188Z,14.09
2022-10-22T16:28:12.971Z,14.13
2022-10-22T16:30:39.372Z,13.99
2022-10-22T16:33:07.444Z,13.84
2022-10-22T16:35:33.956Z,13.81
2022-10-22T16:38:00.361Z,13.76
2022-10-22T16:40:26.810Z,13.70
2022-10-22T16:42:53.146Z,13.63
2022-10-22T16:45:19.579Z,13.62
2022-10-22T16:47:48.962Z,13.68
2022-10-22T16:50:15.402Z,13.61
2022-10-22T16:52:41.767Z,13.53
2022-10-22T16:55:08.698Z,13.44
2022-10-22T16:57:35.835Z,13.40
2022-10-22T17:00:05.073Z,13.36
2022-10-22T17:02:31.417Z,13.36
2022-10-22T17:04:57.803Z,13.33
2022-10-22T17:07:24.135Z,13.19
2022-10-22T17:09:50.474Z,13.16
2022-10-22T17:12:16.915Z,13.09
2022-10-22T17:14:43.276Z,13.00
2022-10-22T17:17:09.619Z,12.93
2022-10-22T17:19:38.647Z,12.97
2022-10-22T17:22:05.536Z,13.06
2022-10-22T17:24:32.146Z,13.03
2022-10-22T17:26:58.600Z,12.94
2022-10-22T17:29:25.242Z,12.83
2022-10-22T17:31:52.498Z,12.77
2022-10-22T17:34:18.881Z,12.75
2022-10-22T17:36:45.257Z,12.69
2022-10-22T17:39:17.476Z,12.59
2022-10-22T17:41:43.867Z,12.57
2022-10-22T17:44:12.184Z,12.58
2022-10-22T17:46:38.970Z,12.60
2022-10-22T17:49:12.372Z,12.62
2022-10-22T17:51:38.766Z,12.59
2022-10-22T17:54:07.432Z,12.67
2022-10-22T17:56:39.964Z,12.60
2022-10-22T17:59:08.533Z,12.58
2022-10-22T18:01:37.591Z,12.60
2022-10-22T18:04:06.415Z,12.65
2022-10-22T18:06:32.897Z,12.57
2022-10-22T18:08:59.512Z,12.52
2022-10-22T18:11:27.464Z,12.46
2022-10-22T18:13:56.683Z,12.38
2022-10-22T18:16:23.879Z,12.32
2022-10-22T18:18:53.097Z,12.27
2022-10-22T18:21:20.708Z,12.29
2022-10-22T18:23:47.561Z,12.29
2022-10-22T18:26:14.880Z,12.23
2022-10-22T18:28:41.361Z,12.14
2022-10-22T18:31:13.664Z,12.09
2022-10-22T18:33:40.714Z,12.07
2022-10-22T18:36:21.612Z,12.11
2022-10-22T18:38:57.599Z,12.38
2022-10-22T18:41:24.524Z,12.25
2022-10-22T18:44:12.429Z,11.81
2022-10-22T18:46:39.608Z,11.75
2022-10-22T18:49:07.075Z,11.62
2022-10-22T18:51:34.624Z,11.58
2022-10-22T18:54:06.035Z,11.58
2022-10-22T18:56:48.031Z,11.59
2022-10-22T18:59:22.016Z,11.60
2022-10-22T19:01:48.965Z,11.55
2022-10-22T19:04:15.568Z,11.52
2022-10-22T19:06:45.398Z,11.50
2022-10-22T19:09:16.114Z,11.51
2022-10-22T19:11:44.392Z,11.41
2022-10-22T19:14:11.189Z,11.28
2022-10-22T19:16:38.693Z,11.17
2022-10-22T19:19:06.638Z,11.17
2022-10-22T19:21:33.878Z,11.06
2022-10-22T19:24:01.179Z,10.95
2022-10-22T19:26:29.732Z,10.82
2022-10-22T19:28:58.003Z,10.59
2022-10-22T19:31:26.185Z,10.68
2022-10-22T19:33:54.571Z,10.60
2022-10-22T19:36:24.209Z,10.64
2022-10-22T19:38:51.137Z,10.76
2022-10-22T19:41:19.797Z,10.88
2022-10-22T19:43:49.912Z,10.79
2022-10-22T19:46:17.040Z,10.70
2022-10-22T19:51:18.882Z,10.69
2022-10-22T19:53:45.435Z,10.82
2022-10-22T19:56:12.346Z,10.87
2022-10-22T19:58:38.973Z,10.87
2022-10-22T20:01:09.925Z,10.95
2022-10-22T20:03:37.677Z,11.00
2022-10-22T20:06:05.951Z,11.01
2022-10-22T20:08:37.686Z,11.00
2022-10-22T20:11:06.889Z,11.01
2022-10-22T20:13:34.795Z,11.01
2022-10-22T20:16:01.358Z,10.96
2022-10-22T20:18:28.750Z,10.92
2022-10-22T20:20:55.289Z,10.87
2022-10-22T20:23:21.734Z,10.84
2022-10-22T20:25:48.415Z,10.79
2022-10-22T20:28:15.345Z,10.75
2022-10-22T20:30:45.564Z,10.85
2022-10-22T20:33:12.412Z,10.85
2022-10-22T20:35:39.464Z,10.87
2022-10-22T20:38:07.922Z,10.82
2022-10-22T20:40:36.217Z,10.76
2022-10-22T20:43:02.565Z,10.73
2022-10-22T20:45:29.108Z,10.66
2022-10-22T20:48:02.620Z,10.78
2022-10-22T20:50:31.914Z,10.81
2022-10-22T20:52:58.899Z,10.80
2022-10-22T20:55:25.581Z,10.73
2022-10-22T20:57:52.028Z,10.73
2022-10-22T21:00:18.403Z,10.65
2022-10-22T21:02:44.821Z,10.72
2022-10-22T21:05:11.269Z,10.60
2022-10-22T21:07:37.637Z,10.61
2022-10-22T21:10:04.531Z,10.56
2022-10-22T21:12:30.858Z,10.67
2022-10-22T21:14:57.162Z,10.59
2022-10-22T21:17:23.502Z,10.58
2022-10-22T21:19:49.951Z,10.55
2022-10-22T21:22:16.336Z,10.56
2022-10-22T21:24:42.878Z,10.54
2022-10-22T21:27:09.298Z,10.56
2022-10-22T21:29:35.658Z,10.55
2022-10-22T21:32:01.996Z,10.55
2022-10-22T21:34:28.407Z,10.62
2022-10-22T21:36:54.823Z,10.56
2022-10-22T21:39:21.212Z,10.56
2022-10-22T21:41:47.634Z,10.61
2022-10-22T21:44:14.075Z,10.52
2022-10-22T21:46:40.421Z,10.55
2022-10-22T21:49:06.788Z,10.55
2022-10-22T21:51:35.252Z,10.52
2022-10-22T21:54:01.810Z,10.57
2022-10-22T21:56:32.650Z,10.61
2022-10-22T21:59:00.240Z,10.58
2022-10-22T22:01:27.995Z,10.57
2022-10-22T22:03:54.578Z,10.55
2022-10-22T22:06:23.549Z,10.56
2022-10-22T22:08:52.419Z,10.57
2022-10-22T22:11:22.609Z,10.53
2022-10-22T22:13:49.124Z,10.54
2022-10-22T22:16:28.638Z,10.58
2022-10-22T22:19:00.200Z,10.63
2022-10-22T22:21:26.820Z,10.60
2022-10-22T22:23:53.932Z,10.68
2022-10-22T22:26:26.649Z,10.72
2022-10-22T22:28:56.700Z,10.63
2022-10-22T22:31:34.674Z,10.65
2022-10-22T22:34:08.676Z,10.66
2022-10-22T22:36:38.653Z,10.58
2022-10-22T22:39:06.721Z,10.60
2022-10-22T22:41:33.120Z,10.65
2022-10-22T22:43:59.842Z,10.67
2022-10-22T22:46:26.262Z,10.70
2022-10-22T22:48:52.641Z,10.63
2022-10-22T22:51:19.106Z,10.66
2022-10-22T22:53:45.857Z,10.67
2022-10-22T22:56:27.783Z,10.67
2022-10-22T22:58:54.650Z,10.70
2022-10-22T23:01:24.393Z,10.67
2022-10-22T23:03:55.496Z,10.67
2022-10-22T23:06:21.991Z,10.61
2022-10-22T23:08:50.313Z,10.67
2022-10-22T23:11:16.718Z,10.67
2022-10-22T23:13:43.731Z,10.59
2022-10-22T23:16:16.861Z,10.64
2022-10-22T23:18:44.720Z,10.65
2022-10-22T23:21:19.649Z,10.62
2022-10-22T23:23:48.852Z,10.61
2022-10-22T23:26:19.013Z,10.61
2022-10-22T23:28:45.418Z,10.64
2022-10-22T23:31:17.120Z,10.58
2022-10-22T23:33:43.886Z,10.58
2022-10-22T23:36:11.383Z,10.59
2022-10-22T23:38:39.159Z,10.52
2022-10-22T23:41:06.255Z,10.50
2022-10-22T23:43:36.068Z,10.52
2022-10-22T23:46:04.251Z,10.59
2022-10-22T23:48:30.895Z,10.61
2022-10-22T23:50:57.314Z,10.53
2022-10-22T23:53:23.729Z,10.50
2022-10-22T23:55:50.107Z,10.54
2022-10-22T23:58:17.195Z,10.54
